Historyczne dane pomiarowe

Dodano dane terminowe – wersja testowa.

Dane z okresu 1951-2019

Wersja bazy: 1.34 [2019-03-16, lista zmian], aktualizacja planowana na 2019-04-15

Dane meteo z obszaru Polski uzyskane na podstawie danych udostępnionych przez Instytut Meteorologii i Gospodarki Wodnej – Państwowy Instytut Badawczy.

 

Wybierz Datę:    

       

TemperaturaWilgotnośćWiatrCiśnienieOpadyŚniegCzas trwania zjawisk
 Stacja t tx tn tng RH VA  wxwx mslp ppp RRR   cm mm wxwxwxwxwxwxwx
1983-08-14 13.8 17.5 11.1 8.2 76.0- 4.0 3.7---- 0.0------------
1983-08-13 15.4 21.4 12.3 12.2 82.5- 3.7 6.0---- 0.0------------
1983-08-12 19.2 25.4 12.2 11.2 73.3- 0.0 1.0---- 1.4------------
1983-08-11 18.8 26.7 10.6 9.1 73.3- 2.0 1.3---- 0.0------------
1983-08-10 18.7 25.9 12.4 11.6 80.5- 3.0 0.7---- 0.0------------
1983-08-09 18.0 25.3 11.2 11.0 82.8- 4.3 1.0---- 1.6------------
1983-08-08 18.0 22.4 14.6 12.4 87.0- 4.0 1.7---- 0.0------------
1983-08-07 13.6 17.7 9.6 9.2 96.5- 7.3 0.7---- 0.6------------
1983-08-06 13.8 18.2 11.8 11.6 96.0- 7.3 0.0---- 1.5------------
1983-08-05 12.2 15.2 9.6 9.5 97.0- 8.0 4.0---- 2.7------------
1983-08-04 10.4 11.2 9.8 9.7 94.5- 8.0 6.0---- 24.2------------
1983-08-03 12.8 22.2 10.8 10.7 94.5- 8.0 5.3---- 43.1------------
1983-08-02 20.3 30.5 17.6 17.0 78.0- 5.7 3.7---- 19.0------------
1983-08-01 24.2 35.1 11.1 10.2 53.5- 1.3 1.7---- 11.2------------
1983-07-31 19.8 29.6 8.9 6.4 58.3- 0.3 1.3---- 0.0------------
1983-07-30 19.7 25.3 16.2 15.9 71.5- 4.3 4.7---- 0.0------------
1983-07-29 18.9 24.2 16.5 13.3 77.8- 6.3 4.0---- 2.8------------
1983-07-28 23.4 31.5 15.4 15.3 64.3- 1.3 2.0---- 0.0------------
1983-07-27 25.5 35.4 15.7 13.6 55.3- 0.3 3.0---- 0.0------------
1983-07-26 20.2 30.1 9.8 7.2 60.0- 0.3 1.0---- 0.0------------
1983-07-25 19.1 26.6 10.1 7.8 64.8- 0.0 0.7---- 0.0------------
1983-07-24 19.5 27.7 10.6 9.5 69.8- 2.3 1.7---- 0.0------------
1983-07-23 20.3 26.8 12.1 9.7 70.3- 1.3 3.3---- 0.0------------
1983-07-22 17.6 24.2 10.8 9.7 66.8- 5.3 2.7---- 0.0------------
1983-07-21 13.7 17.2 9.1 8.5 61.3- 3.7 4.3---- 0.0------------
1983-07-20 15.0 19.4 10.8 10.7 83.5- 6.3 4.0---- 2.3------------
1983-07-19 20.3 29.1 16.1 15.3 85.3- 6.7 2.7---- 12.0------------
1983-07-18 25.3 33.3 14.8 14.7 58.3- 1.3 2.3---- 1.7------------
1983-07-17 21.6 28.6 14.6 12.8 78.5- 0.7 1.3---- 0.0------------
1983-07-16 19.0 27.6 14.5 13.2 83.3- 4.7 3.7---- 16.2------------
1983-07-15 20.0 25.9 15.4 14.7 72.5- 2.3 3.0---- 0.0------------
1983-07-14 17.4 24.2 14.0 13.7 84.0- 7.0 3.3---- 0.0------------
1983-07-13 20.9 26.7 14.0 12.6 72.3- 2.3 4.7---- 0.0------------
1983-07-12 22.2 31.3 14.1 13.6 74.3- 3.3 2.0---- 7.9------------
1983-07-11 21.5 30.6 10.6 9.2 63.5- 4.3 3.3---- 0.0------------
1983-07-10 21.6 30.6 9.2 8.6 60.3- 2.7 1.0---- 0.0------------
1983-07-09 20.8 30.6 8.3 6.2 54.3- 0.3 0.7---- 0.0------------
1983-07-08 22.0 29.2 13.6 11.7 50.3- 0.0 1.7---- 0.0------------
1983-07-07 23.6 31.4 15.8 13.7 62.0- 0.3 1.7---- 0.0------------
1983-07-06 22.0 29.6 12.6 11.0 68.0- 0.3 1.3---- 0.0------------
1983-07-05 19.6 26.6 11.4 9.7 71.3- 0.3 1.3---- 0.0------------
1983-07-04 19.0 26.6 11.6 9.2 66.3- 2.0 1.3---- 0.0------------
1983-07-03 17.4 24.0 9.6 6.4 67.3- 2.7 0.3---- 0.0------------
1983-07-02 17.2 21.4 13.8 13.8 75.3- 3.7 0.3---- 0.0------------
1983-07-01 18.5 24.0 14.1 10.7 72.8- 3.7 1.3---- 1.7------------
1983-06-30 18.4 23.7 11.6 8.8 61.0- 2.3 3.3---- 0.0------------
1983-06-29 14.4 20.1 8.7 7.6 65.3- 5.7 3.3---- 0.0------------
1983-06-28 14.2 17.5 12.1 12.0 73.5- 5.7 3.7---- 0.0------------
1983-06-27 18.6 23.5 15.8 14.2 86.8- 6.7 3.7---- 1.9------------
1983-06-26 19.1 26.1 13.1 10.9 84.3- 4.7 2.0---- 2.6------------
1983-06-25 21.0 28.4 14.9 9.5 64.3- 2.0 3.0---- 0.4------------
1983-06-24 19.6 28.1 7.3 3.7 54.8- 0.0 3.3---- 0.0------------
1983-06-23 15.6 23.5 6.0 2.4 63.0- 0.0 1.0---- 0.0------------
1983-06-22 17.1 22.0 10.1 9.5 66.0- 0.7 2.3---- 0.0------------
1983-06-21 19.0 25.7 9.6 8.2 67.0- 0.3 1.7---- 0.0------------
1983-06-20 16.6 24.0 8.4 5.7 68.8- 5.0 0.7---- 0.0------------
1983-06-19 15.3 20.4 11.8 11.8 80.3- 6.3 1.7---- 0.0------------
1983-06-18 12.7 16.2 7.7 4.7 84.0- 6.3 2.7---- 0.0------------
1983-06-17 11.3 14.4 9.0 8.8 69.5- 5.3 2.0---- 0.0------------
1983-06-16 11.4 15.7 8.6 8.5 79.0- 6.3 4.7---- 0.0------------
244.3 ms

 

Źródłem pochodzenia danych jest Instytut Meteorologii i Gospodarki Wodnej – Państwowy Instytut Badawczy. Dane Instytutu Meteorologii i Gospodarki Wodnej – Państwowego Instytutu Badawczego zostały przetworzone.

Dane źródłowe można odnaleźć na stronie https://dane.imgw.pl